Time;durP1;ratioP1;P1;durP2;ratioP2;P2;SDS_P1;SDS_P2;PMS_P1;PMS_P2;Temp;Humidity;BMP_temperature;BMP_pressure;BME280_temperature;BME280_humidity;BME280_pressure;Samples;Min_cycle;Max_cycle;Signal;HPM_P1;HPM_P2
2021/05/24 00:26:16;;;;;;;57.88;8.23;;;;;;;;;;5154028;27;20130;-66
2021/05/24 00:28:42;;;;;;;75.25;8.45;;;;;;;;;;5159755;27;20089;-66
2021/05/24 00:31:08;;;;;;;77.62;7.20;;;;;;;;;;5159289;27;20134;-67
2021/05/24 00:33:34;;;;;;;49.97;7.07;;;;;;;;;;5159582;27;20072;-66
2021/05/24 00:36:00;;;;;;;54.25;7.45;;;;;;;;;;5159635;27;20139;-67
2021/05/24 00:38:26;;;;;;;56.90;7.70;;;;;;;;;;5158946;27;20084;-68
2021/05/24 00:40:52;;;;;;;59.40;8.07;;;;;;;;;;5159446;27;20071;-67
2021/05/24 00:43:18;;;;;;;54.60;7.85;;;;;;;;;;5157424;27;20103;-67
2021/05/24 00:45:43;;;;;;;67.95;12.00;;;;;;;;;;5159488;27;20181;-67
2021/05/24 00:48:10;;;;;;;63.58;7.97;;;;;;;;;;5159396;27;20105;-67
2021/05/24 00:50:37;;;;;;;73.85;10.23;;;;;;;;;;5159375;27;20113;-67
2021/05/24 00:53:03;;;;;;;81.65;11.27;;;;;;;;;;5157760;27;20086;-67
2021/05/24 00:55:29;;;;;;;69.07;9.50;;;;;;;;;;5159487;27;20398;-67
2021/05/24 00:57:55;;;;;;;60.03;9.73;;;;;;;;;;5159255;27;20108;-67
2021/05/24 01:00:35;;;;;;;58.67;7.75;;;;;;;;;;5159671;27;20087;-67
2021/05/24 01:03:01;;;;;;;76.20;11.93;;;;;;;;;;5159303;27;20514;-68
2021/05/24 01:05:27;;;;;;;71.50;10.50;;;;;;;;;;5159270;27;20109;-69
2021/05/24 01:07:53;;;;;;;67.18;10.98;;;;;;;;;;5159093;27;20102;-68
2021/05/24 01:10:19;;;;;;;90.05;11.10;;;;;;;;;;5159285;27;20117;-69
2021/05/24 01:12:45;;;;;;;66.00;9.25;;;;;;;;;;5157507;27;20093;-68
2021/05/24 01:15:11;;;;;;;74.32;10.10;;;;;;;;;;5157939;27;20082;-68
2021/05/24 01:17:37;;;;;;;102.40;13.15;;;;;;;;;;5159490;27;20104;-67
2021/05/24 01:20:04;;;;;;;84.37;12.57;;;;;;;;;;5159193;27;20106;-68
2021/05/24 01:22:32;;;;;;;82.90;9.93;;;;;;;;;;5159178;27;20098;-67
2021/05/24 01:24:58;;;;;;;43.83;10.18;;;;;;;;;;5159146;27;20093;-67
2021/05/24 01:27:24;;;;;;;48.58;12.23;;;;;;;;;;5159118;27;20522;-67
2021/05/24 01:29:50;;;;;;;47.40;10.27;;;;;;;;;;5159375;27;20499;-67
2021/05/24 01:32:16;;;;;;;42.50;8.48;;;;;;;;;;5158996;27;20493;-67
2021/05/24 01:34:42;;;;;;;47.83;8.70;;;;;;;;;;5157757;27;20112;-67
2021/05/24 01:37:08;;;;;;;51.17;9.40;;;;;;;;;;5159111;27;20470;-67
2021/05/24 01:39:34;;;;;;;33.28;8.68;;;;;;;;;;5159100;27;20106;-67
2021/05/24 01:41:59;;;;;;;38.20;8.85;;;;;;;;;;5159208;27;20087;-67
2021/05/24 01:44:37;;;;;;;42.50;8.88;;;;;;;;;;5158960;27;20161;-68
2021/05/24 01:47:03;;;;;;;40.45;10.38;;;;;;;;;;5157698;27;20062;-69
2021/05/24 01:49:33;;;;;;;36.20;8.20;;;;;;;;;;5157453;27;20093;-69
2021/05/24 01:51:59;;;;;;;47.45;9.25;;;;;;;;;;5174668;27;20090;-69
2021/05/24 01:54:25;;;;;;;34.30;8.38;;;;;;;;;;5157138;27;20186;-69
2021/05/24 01:56:51;;;;;;;35.10;9.73;;;;;;;;;;5158956;27;20078;-69
2021/05/24 01:59:17;;;;;;;22.27;9.90;;;;;;;;;;5159094;27;20177;-69
2021/05/24 02:01:43;;;;;;;37.00;6.93;;;;;;;;;;5158837;27;20493;-69
2021/05/24 02:04:09;;;;;;;28.77;7.65;;;;;;;;;;5159269;27;20077;-73
2021/05/24 02:06:35;;;;;;;25.83;8.30;;;;;;;;;;5159205;27;20077;-69
2021/05/24 02:09:01;;;;;;;34.58;8.20;;;;;;;;;;5157122;27;20168;-70
2021/05/24 02:11:28;;;;;;;35.42;8.05;;;;;;;;;;5158753;27;20134;-74
2021/05/24 02:13:54;;;;;;;40.12;8.18;;;;;;;;;;5158943;27;20465;-74
2021/05/24 02:16:42;;;;;;;45.60;7.30;;;;;;;;;;5159105;27;20074;-74
2021/05/24 02:19:13;;;;;;;55.08;9.48;;;;;;;;;;5141399;27;20079;-74
2021/05/24 02:21:40;;;;;;;31.42;7.53;;;;;;;;;;5157136;27;20505;-74
2021/05/24 02:24:07;;;;;;;52.55;9.30;;;;;;;;;;5140060;27;20093;-73
2021/05/24 02:26:34;;;;;;;68.35;10.50;;;;;;;;;;5158533;27;20225;-73
2021/05/24 02:29:00;;;;;;;76.20;9.38;;;;;;;;;;5157080;27;20471;-74
2021/05/24 02:31:26;;;;;;;53.22;8.70;;;;;;;;;;5158761;27;20105;-79
2021/05/24 02:33:52;;;;;;;70.72;9.98;;;;;;;;;;5160528;27;20193;-81
2021/05/24 02:36:21;;;;;;;54.28;10.18;;;;;;;;;;5157471;27;20183;-73
2021/05/24 02:38:47;;;;;;;46.78;8.85;;;;;;;;;;5162283;27;20080;-75
2021/05/24 02:41:14;;;;;;;55.65;8.63;;;;;;;;;;5157557;27;20185;-74
2021/05/24 02:43:40;;;;;;;66.97;8.32;;;;;;;;;;5140219;27;20077;-74
2021/05/24 02:46:06;;;;;;;72.40;11.02;;;;;;;;;;5158629;27;20521;-76
2021/05/24 02:48:32;;;;;;;67.45;9.85;;;;;;;;;;5157183;27;20083;-73
2021/05/24 02:50:58;;;;;;;60.45;9.63;;;;;;;;;;5159623;27;20093;-75
2021/05/24 02:53:24;;;;;;;43.65;7.90;;;;;;;;;;5176330;27;20094;-74
2021/05/24 02:55:50;;;;;;;37.10;8.02;;;;;;;;;;5167621;27;20213;-72
2021/05/24 02:58:16;;;;;;;23.23;7.50;;;;;;;;;;5161691;27;20082;-71
2021/05/24 03:00:42;;;;;;;16.87;7.82;;;;;;;;;;5171638;27;20152;-70
2021/05/24 03:03:09;;;;;;;28.85;7.97;;;;;;;;;;5159196;27;20097;-70
2021/05/24 03:05:35;;;;;;;20.98;8.13;;;;;;;;;;5160100;27;20169;-70
2021/05/24 03:08:01;;;;;;;15.70;7.15;;;;;;;;;;5159752;27;20490;-71
2021/05/24 03:10:26;;;;;;;15.65;6.87;;;;;;;;;;5158703;27;20193;-71
2021/05/24 03:12:53;;;;;;;19.87;6.97;;;;;;;;;;5140275;27;20437;-69
2021/05/24 03:15:19;;;;;;;10.85;5.35;;;;;;;;;;5157959;27;20090;-70
2021/05/24 03:17:45;;;;;;;15.57;6.72;;;;;;;;;;5159423;27;20477;-71
2021/05/24 03:20:12;;;;;;;13.40;5.30;;;;;;;;;;5158368;27;20183;-70
2021/05/24 03:22:38;;;;;;;9.30;6.00;;;;;;;;;;5159867;27;20066;-69
2021/05/24 03:25:05;;;;;;;7.35;4.93;;;;;;;;;;5159851;27;20501;-69
2021/05/24 03:27:31;;;;;;;9.00;4.20;;;;;;;;;;5159641;27;20086;-70
2021/05/24 03:29:57;;;;;;;9.63;5.05;;;;;;;;;;5158397;27;20114;-69
2021/05/24 03:32:23;;;;;;;6.12;4.70;;;;;;;;;;5159988;27;20082;-69
2021/05/24 03:34:49;;;;;;;6.03;4.15;;;;;;;;;;5159868;27;20090;-69
2021/05/24 03:37:15;;;;;;;7.80;4.32;;;;;;;;;;5159900;27;20078;-69
2021/05/24 03:39:40;;;;;;;15.20;5.20;;;;;;;;;;5159919;27;20082;-69
2021/05/24 03:42:06;;;;;;;6.12;4.65;;;;;;;;;;5158077;27;20641;-69
2021/05/24 03:44:34;;;;;;;7.75;4.87;;;;;;;;;;5159839;27;20094;-70
2021/05/24 03:47:00;;;;;;;10.27;5.07;;;;;;;;;;5160061;27;20086;-69
2021/05/24 03:49:26;;;;;;;8.27;4.47;;;;;;;;;;5159622;27;20440;-68
2021/05/24 03:51:52;;;;;;;7.45;3.60;;;;;;;;;;5159983;27;20097;-69
2021/05/24 03:54:18;;;;;;;6.43;3.83;;;;;;;;;;5159591;27;20109;-68
2021/05/24 03:56:44;;;;;;;5.05;3.30;;;;;;;;;;5157780;27;20490;-69
2021/05/24 03:59:10;;;;;;;6.18;3.70;;;;;;;;;;5157916;27;20106;-68
2021/05/24 04:01:38;;;;;;;4.65;3.75;;;;;;;;;;5158024;27;20176;-70
2021/05/24 04:04:05;;;;;;;12.30;4.03;;;;;;;;;;5159685;27;20410;-69
2021/05/24 04:06:31;;;;;;;13.07;4.28;;;;;;;;;;5159774;27;20592;-69
2021/05/24 04:08:58;;;;;;;10.98;4.97;;;;;;;;;;5159644;27;20165;-69
2021/05/24 04:11:24;;;;;;;7.28;3.83;;;;;;;;;;5159674;27;20098;-69
2021/05/24 04:13:52;;;;;;;4.78;3.95;;;;;;;;;;5159692;27;20090;-69
2021/05/24 04:16:18;;;;;;;5.95;3.60;;;;;;;;;;5140982;27;20090;-71
2021/05/24 04:18:47;;;;;;;8.57;4.10;;;;;;;;;;5159291;27;20102;-69
2021/05/24 04:21:14;;;;;;;8.75;3.97;;;;;;;;;;5159549;27;20119;-69
2021/05/24 04:23:40;;;;;;;9.65;4.25;;;;;;;;;;5157749;27;20109;-69
2021/05/24 04:26:06;;;;;;;5.37;4.03;;;;;;;;;;5157182;27;20146;-70
2021/05/24 04:28:33;;;;;;;5.95;3.65;;;;;;;;;;5159289;27;20564;-71
2021/05/24 04:30:59;;;;;;;6.80;4.18;;;;;;;;;;5159277;27;20101;-71
2021/05/24 04:33:25;;;;;;;7.72;3.65;;;;;;;;;;5159374;27;20095;-71
2021/05/24 04:35:51;;;;;;;5.28;3.92;;;;;;;;;;5159307;27;20089;-71
2021/05/24 04:38:17;;;;;;;4.43;3.37;;;;;;;;;;5159395;27;20090;-71
2021/05/24 04:40:43;;;;;;;6.07;3.90;;;;;;;;;;5159342;27;20448;-72
2021/05/24 04:43:09;;;;;;;4.75;3.65;;;;;;;;;;5157367;27;20179;-72
2021/05/24 04:45:35;;;;;;;5.32;3.95;;;;;;;;;;5159357;27;20101;-72
2021/05/24 04:48:01;;;;;;;9.25;3.55;;;;;;;;;;5159083;27;20434;-71
2021/05/24 04:50:27;;;;;;;10.10;4.40;;;;;;;;;;5158660;27;20085;-71
2021/05/24 04:52:53;;;;;;;10.50;4.75;;;;;;;;;;5158707;27;20073;-70
2021/05/24 04:55:20;;;;;;;4.72;4.22;;;;;;;;;;5159215;27;20437;-71
2021/05/24 04:57:46;;;;;;;9.73;3.17;;;;;;;;;;5159249;27;20065;-71
2021/05/24 05:00:13;;;;;;;6.65;4.22;;;;;;;;;;5159132;27;20120;-70
2021/05/24 05:02:39;;;;;;;7.95;4.03;;;;;;;;;;5159224;27;20497;-71
2021/05/24 05:05:07;;;;;;;12.88;4.20;;;;;;;;;;5162594;27;20105;-69
2021/05/24 05:07:33;;;;;;;8.73;3.50;;;;;;;;;;5162762;27;20450;-70
2021/05/24 05:09:59;;;;;;;7.62;4.10;;;;;;;;;;5160898;27;20161;-69
2021/05/24 05:12:25;;;;;;;7.43;3.70;;;;;;;;;;5160444;27;20437;-70
2021/05/24 05:14:52;;;;;;;4.85;2.90;;;;;;;;;;5160202;27;20292;-70
2021/05/24 05:17:18;;;;;;;5.95;3.90;;;;;;;;;;5161810;27;20081;-70
2021/05/24 05:19:44;;;;;;;4.93;3.25;;;;;;;;;;5161104;27;20093;-70
2021/05/24 05:22:10;;;;;;;8.55;3.85;;;;;;;;;;5159668;27;20501;-70
2021/05/24 05:24:36;;;;;;;8.27;4.60;;;;;;;;;;5158394;27;20172;-70
2021/05/24 05:27:03;;;;;;;7.57;3.42;;;;;;;;;;5140109;27;20099;-69
2021/05/24 05:29:28;;;;;;;4.55;3.50;;;;;;;;;;5159594;27;20110;-70
2021/05/24 05:31:54;;;;;;;6.53;3.37;;;;;;;;;;5159179;27;20078;-70
2021/05/24 05:34:20;;;;;;;4.05;3.42;;;;;;;;;;5157823;27;20176;-70
2021/05/24 05:36:46;;;;;;;7.25;4.20;;;;;;;;;;5159557;27;20181;-69
2021/05/24 05:39:13;;;;;;;6.53;3.97;;;;;;;;;;5157604;27;20105;-69
2021/05/24 05:41:38;;;;;;;6.72;3.85;;;;;;;;;;5157603;27;20059;-69
2021/05/24 05:44:05;;;;;;;5.37;3.53;;;;;;;;;;5159099;27;20100;-70
2021/05/24 05:46:31;;;;;;;6.85;3.50;;;;;;;;;;5159605;27;20082;-71
2021/05/24 05:48:57;;;;;;;3.15;2.85;;;;;;;;;;5159266;27;20397;-70
2021/05/24 05:51:24;;;;;;;9.20;4.22;;;;;;;;;;5159363;27;20093;-70
2021/05/24 05:53:52;;;;;;;4.75;3.78;;;;;;;;;;5159959;27;20101;-70
2021/05/24 05:56:18;;;;;;;5.25;3.72;;;;;;;;;;5160118;27;20090;-71
2021/05/24 05:58:44;;;;;;;5.10;4.22;;;;;;;;;;5159567;27;20080;-70
2021/05/24 06:01:09;;;;;;;7.15;4.50;;;;;;;;;;5160145;27;20426;-70
2021/05/24 06:03:35;;;;;;;5.57;3.40;;;;;;;;;;5159737;27;20074;-70
2021/05/24 06:06:01;;;;;;;5.62;3.45;;;;;;;;;;5141020;27;20078;-71
2021/05/24 06:08:27;;;;;;;4.22;2.55;;;;;;;;;;5159514;27;20093;-70
2021/05/24 06:10:53;;;;;;;7.72;4.00;;;;;;;;;;5158780;27;20113;-70
2021/05/24 06:13:19;;;;;;;3.33;2.85;;;;;;;;;;5159248;27;20178;-71
2021/05/24 06:15:45;;;;;;;9.85;3.78;;;;;;;;;;5159188;27;20116;-70
2021/05/24 06:18:11;;;;;;;2.65;2.40;;;;;;;;;;5158731;27;20102;-70
2021/05/24 06:20:37;;;;;;;7.18;4.57;;;;;;;;;;5159177;27;20196;-70
2021/05/24 06:23:03;;;;;;;6.18;3.33;;;;;;;;;;5157414;27;20176;-70
2021/05/24 06:25:30;;;;;;;5.75;3.20;;;;;;;;;;5159968;27;20514;-71
2021/05/24 06:27:57;;;;;;;4.57;2.80;;;;;;;;;;5159713;27;20181;-71
2021/05/24 06:30:23;;;;;;;7.10;4.20;;;;;;;;;;5158275;27;20070;-70
2021/05/24 06:32:50;;;;;;;5.55;3.95;;;;;;;;;;5160145;27;20168;-70
2021/05/24 06:35:19;;;;;;;4.20;3.80;;;;;;;;;;5160329;27;20095;-70
2021/05/24 06:37:45;;;;;;;8.40;3.97;;;;;;;;;;5158031;27;20086;-70
2021/05/24 06:40:12;;;;;;;6.15;4.60;;;;;;;;;;5161239;27;20105;-70
2021/05/24 06:42:38;;;;;;;7.80;3.33;;;;;;;;;;5163215;27;20074;-70
2021/05/24 06:45:05;;;;;;;8.55;3.08;;;;;;;;;;5160771;27;20287;-70
2021/05/24 06:47:31;;;;;;;4.80;2.78;;;;;;;;;;5158268;27;20464;-71
2021/05/24 06:49:57;;;;;;;3.45;2.80;;;;;;;;;;5159989;27;20093;-71
2021/05/24 06:52:23;;;;;;;6.68;4.47;;;;;;;;;;5159900;27;20078;-69
2021/05/24 06:54:49;;;;;;;5.05;3.10;;;;;;;;;;5161156;27;20098;-69
2021/05/24 06:57:14;;;;;;;11.93;5.87;;;;;;;;;;5161217;27;20062;-67
2021/05/24 06:59:40;;;;;;;8.60;4.65;;;;;;;;;;5160662;27;20071;-68
2021/05/24 07:02:07;;;;;;;8.30;5.12;;;;;;;;;;5159911;27;20193;-69
2021/05/24 07:04:33;;;;;;;7.05;4.80;;;;;;;;;;5158182;27;20485;-69
2021/05/24 07:06:59;;;;;;;8.63;4.60;;;;;;;;;;5159830;27;20179;-68
2021/05/24 07:09:25;;;;;;;10.52;5.62;;;;;;;;;;5159938;27;20173;-69
2021/05/24 07:11:51;;;;;;;7.10;5.45;;;;;;;;;;5158279;27;20102;-68
2021/05/24 07:14:17;;;;;;;6.47;5.07;;;;;;;;;;5160280;27;20097;-68
2021/05/24 07:16:43;;;;;;;7.90;5.20;;;;;;;;;;5159850;27;20179;-69
2021/05/24 07:19:09;;;;;;;7.37;5.75;;;;;;;;;;5159722;27;20158;-68
2021/05/24 07:21:35;;;;;;;8.43;6.07;;;;;;;;;;5159761;27;20090;-68
2021/05/24 07:24:00;;;;;;;9.32;5.50;;;;;;;;;;5159610;27;20116;-69
2021/05/24 07:26:26;;;;;;;6.32;4.55;;;;;;;;;;5157977;27;20153;-68
2021/05/24 07:28:52;;;;;;;6.30;4.97;;;;;;;;;;5157951;27;20162;-68
2021/05/24 07:31:18;;;;;;;9.23;4.93;;;;;;;;;;5159147;27;20070;-68
2021/05/24 07:33:44;;;;;;;6.87;5.28;;;;;;;;;;5159764;27;20106;-68
2021/05/24 07:36:10;;;;;;;6.72;5.37;;;;;;;;;;5159514;27;20138;-68
2021/05/24 07:38:36;;;;;;;13.13;6.12;;;;;;;;;;5159706;27;20094;-68
2021/05/24 07:41:02;;;;;;;6.07;5.43;;;;;;;;;;5159811;27;20401;-68
2021/05/24 07:43:28;;;;;;;5.40;4.82;;;;;;;;;;5158112;27;20082;-68
2021/05/24 07:45:54;;;;;;;7.28;5.00;;;;;;;;;;5157913;27;20105;-67
2021/05/24 07:48:19;;;;;;;9.45;5.78;;;;;;;;;;5173218;27;20085;-68
2021/05/24 07:50:45;;;;;;;5.57;4.95;;;;;;;;;;5176128;27;20096;-68
2021/05/24 07:53:11;;;;;;;8.15;5.10;;;;;;;;;;5178187;27;20149;-68
2021/05/24 07:55:37;;;;;;;6.40;4.72;;;;;;;;;;5163570;27;20577;-68
2021/05/24 07:58:03;;;;;;;5.40;4.57;;;;;;;;;;5160137;27;20182;-68
2021/05/24 08:00:29;;;;;;;6.22;4.78;;;;;;;;;;5159853;27;20074;-69
2021/05/24 08:02:55;;;;;;;4.57;4.15;;;;;;;;;;5159851;27;20142;-69
2021/05/24 08:05:21;;;;;;;5.80;4.97;;;;;;;;;;5159628;27;20089;-68
2021/05/24 08:07:47;;;;;;;6.65;5.28;;;;;;;;;;5159533;27;20498;-68
2021/05/24 08:10:15;;;;;;;4.97;4.35;;;;;;;;;;5159606;27;20097;-68
2021/05/24 08:12:41;;;;;;;6.45;4.47;;;;;;;;;;5159736;27;20102;-69
2021/05/24 08:15:09;;;;;;;8.77;3.97;;;;;;;;;;5158096;27;20108;-68
2021/05/24 08:17:36;;;;;;;9.10;5.00;;;;;;;;;;5159511;27;20177;-69
2021/05/24 08:20:03;;;;;;;4.57;4.07;;;;;;;;;;5159498;27;20098;-68
2021/05/24 08:22:29;;;;;;;5.78;4.40;;;;;;;;;;5159349;27;20093;-68
2021/05/24 08:24:55;;;;;;;8.20;4.30;;;;;;;;;;5159424;27;20285;-67
2021/05/24 08:27:21;;;;;;;6.47;3.87;;;;;;;;;;5159012;27;20195;-68
2021/05/24 08:29:47;;;;;;;5.20;4.10;;;;;;;;;;5159422;27;20098;-68
2021/05/24 08:32:13;;;;;;;5.07;4.07;;;;;;;;;;5159280;27;20126;-68
2021/05/24 08:34:38;;;;;;;8.35;4.43;;;;;;;;;;5159270;27;20105;-68
2021/05/24 08:37:04;;;;;;;6.62;3.80;;;;;;;;;;5159219;27;20407;-69
2021/05/24 08:39:30;;;;;;;3.85;3.45;;;;;;;;;;5159348;27;20445;-69
2021/05/24 08:41:58;;;;;;;6.97;3.90;;;;;;;;;;5159237;27;20104;-68
2021/05/24 08:44:23;;;;;;;6.47;4.57;;;;;;;;;;5157840;27;20066;-69
2021/05/24 08:46:49;;;;;;;6.18;3.58;;;;;;;;;;5159202;27;20084;-69
2021/05/24 08:49:15;;;;;;;5.05;3.58;;;;;;;;;;5157573;27;20075;-69
2021/05/24 08:51:41;;;;;;;8.82;4.07;;;;;;;;;;5157852;27;20168;-68
2021/05/24 08:54:07;;;;;;;7.37;3.12;;;;;;;;;;5159330;27;20090;-68
2021/05/24 08:56:33;;;;;;;5.15;3.75;;;;;;;;;;5158976;27;20265;-68
2021/05/24 08:59:00;;;;;;;4.95;3.58;;;;;;;;;;5159136;27;20110;-69
2021/05/24 09:01:26;;;;;;;3.85;3.40;;;;;;;;;;5157479;27;20406;-69
2021/05/24 09:04:05;;;;;;;3.40;2.70;;;;;;;;;;5159051;27;20085;-68
2021/05/24 09:06:39;;;;;;;6.22;3.37;;;;;;;;;;5159073;27;20403;-69
2021/05/24 09:09:23;;;;;;;5.83;3.17;;;;;;;;;;5159215;27;20079;-68
2021/05/24 09:11:48;;;;;;;4.50;3.50;;;;;;;;;;5159492;27;20490;-68
2021/05/24 09:14:19;;;;;;;5.55;3.60;;;;;;;;;;5157746;27;20090;-69
2021/05/24 09:16:53;;;;;;;6.25;3.80;;;;;;;;;;5159224;27;20493;-69
2021/05/24 09:19:20;;;;;;;12.40;3.75;;;;;;;;;;5141583;27;20081;-69
2021/05/24 09:22:05;;;;;;;4.05;3.33;;;;;;;;;;5157740;27;20142;-69
2021/05/24 09:24:38;;;;;;;5.80;3.40;;;;;;;;;;5159102;27;20138;-69
2021/05/24 09:27:06;;;;;;;3.55;3.17;;;;;;;;;;5157279;27;20505;-68
2021/05/24 09:29:46;;;;;;;10.40;3.58;;;;;;;;;;5159342;27;20081;-69
2021/05/24 09:32:18;;;;;;;5.43;2.87;;;;;;;;;;5159147;27;20089;-68
2021/05/24 09:34:45;;;;;;;6.68;3.12;;;;;;;;;;5158824;27;20081;-68
2021/05/24 09:37:11;;;;;;;4.22;3.17;;;;;;;;;;5159276;27;20106;-69
2021/05/24 09:39:38;;;;;;;5.50;3.33;;;;;;;;;;5157653;27;20108;-69
2021/05/24 09:42:11;;;;;;;4.43;2.83;;;;;;;;;;5157004;27;20090;-68
2021/05/24 09:44:49;;;;;;;3.17;2.87;;;;;;;;;;5159245;27;20077;-68
2021/05/24 09:47:15;;;;;;;8.75;3.10;;;;;;;;;;5158964;27;20409;-68
2021/05/24 09:49:43;;;;;;;5.07;3.15;;;;;;;;;;5157469;27;20193;-69
2021/05/24 09:52:09;;;;;;;5.53;3.10;;;;;;;;;;5157355;27;20123;-69
2021/05/24 09:54:36;;;;;;;6.00;2.53;;;;;;;;;;5158936;27;20117;-69
2021/05/24 09:57:06;;;;;;;3.03;2.80;;;;;;;;;;5160260;27;20082;-70
2021/05/24 09:59:33;;;;;;;6.68;2.80;;;;;;;;;;5159115;27;20497;-70
2021/05/24 10:02:01;;;;;;;5.40;2.85;;;;;;;;;;5157338;27;20097;-70
2021/05/24 10:04:32;;;;;;;8.43;3.03;;;;;;;;;;5159882;27;20492;-70
2021/05/24 10:07:01;;;;;;;3.65;2.72;;;;;;;;;;5160862;27;20466;-69
2021/05/24 10:09:28;;;;;;;7.07;3.05;;;;;;;;;;5159646;27;20506;-69
2021/05/24 10:11:54;;;;;;;5.53;2.50;;;;;;;;;;5158732;27;20512;-70
2021/05/24 10:14:21;;;;;;;5.78;2.55;;;;;;;;;;5159244;27;20098;-70
2021/05/24 10:16:49;;;;;;;4.60;2.58;;;;;;;;;;5160224;27;20075;-69
2021/05/24 10:19:18;;;;;;;6.68;2.53;;;;;;;;;;5162157;27;20078;-70
2021/05/24 10:21:46;;;;;;;2.80;2.40;;;;;;;;;;5161557;27;20090;-69
2021/05/24 10:24:12;;;;;;;11.77;2.90;;;;;;;;;;5160048;27;20165;-69
2021/05/24 10:26:38;;;;;;;3.15;2.40;;;;;;;;;;5161851;27;20453;-70
2021/05/24 10:29:04;;;;;;;3.03;2.42;;;;;;;;;;5161495;27;20528;-69
2021/05/24 10:31:32;;;;;;;4.93;2.45;;;;;;;;;;5159564;27;20169;-71
2021/05/24 10:34:12;;;;;;;7.20;2.60;;;;;;;;;;5162251;27;20164;-71
2021/05/24 10:36:39;;;;;;;4.47;2.85;;;;;;;;;;5162133;27;20082;-69
2021/05/24 10:39:19;;;;;;;2.53;2.20;;;;;;;;;;5161571;27;20086;-70
2021/05/24 10:41:48;;;;;;;2.92;2.50;;;;;;;;;;5162318;27;20180;-69
2021/05/24 10:44:38;;;;;;;2.67;2.10;;;;;;;;;;5162535;27;20161;-68
2021/05/24 10:47:16;;;;;;;3.95;2.70;;;;;;;;;;5151469;27;20497;-69
2021/05/24 10:50:07;;;;;;;5.62;2.40;;;;;;;;;;5161043;27;20074;-70
2021/05/24 10:52:35;;;;;;;3.87;2.90;;;;;;;;;;5161222;27;20063;-69
2021/05/24 10:55:21;;;;;;;7.20;2.47;;;;;;;;;;5161067;27;20097;-70
2021/05/24 10:57:57;;;;;;;3.22;2.35;;;;;;;;;;5160657;27;20090;-70
2021/05/24 11:00:23;;;;;;;4.05;2.42;;;;;;;;;;5159021;27;20070;-70
2021/05/24 11:02:53;;;;;;;4.07;2.37;;;;;;;;;;5158670;27;20561;-69
2021/05/24 11:05:30;;;;;;;4.97;2.95;;;;;;;;;;5141507;27;20066;-69
2021/05/24 11:08:07;;;;;;;3.33;2.50;;;;;;;;;;5158925;27;20074;-70
2021/05/24 11:10:39;;;;;;;4.65;2.30;;;;;;;;;;5160165;27;20162;-69
2021/05/24 11:13:11;;;;;;;5.07;2.50;;;;;;;;;;5160634;27;20086;-69
2021/05/24 11:15:38;;;;;;;6.78;2.58;;;;;;;;;;5168294;27;20077;-70
2021/05/24 11:18:04;;;;;;;4.68;2.25;;;;;;;;;;5173596;27;20109;-69
2021/05/24 11:20:35;;;;;;;5.32;3.45;;;;;;;;;;5177031;27;20403;-70
2021/05/24 11:26:29;;;;;;;7.35;2.55;;;;;;;;;;5182294;27;20102;-69
2021/05/24 11:28:59;;;;;;;5.25;2.37;;;;;;;;;;5159216;27;20180;-70
2021/05/24 11:31:26;;;;;;;6.90;2.05;;;;;;;;;;5159012;27;20484;-71
2021/05/24 11:33:54;;;;;;;7.95;2.10;;;;;;;;;;5160467;27;20113;-71
2021/05/24 11:36:29;;;;;;;10.27;2.42;;;;;;;;;;5160214;27;20148;-71
2021/05/24 11:39:11;;;;;;;3.15;2.45;;;;;;;;;;5160430;27;20500;-71
2021/05/24 11:41:54;;;;;;;4.10;2.58;;;;;;;;;;5160985;27;20185;-70
2021/05/24 11:44:51;;;;;;;6.55;2.28;;;;;;;;;;5160484;27;20165;-70
2021/05/24 11:47:21;;;;;;;2.28;1.92;;;;;;;;;;5160656;27;20073;-70
2021/05/24 11:49:53;;;;;;;3.95;2.20;;;;;;;;;;5161867;27;20179;-70
2021/05/24 11:52:21;;;;;;;5.30;2.08;;;;;;;;;;5161266;27;20497;-70
2021/05/24 11:54:50;;;;;;;2.55;2.05;;;;;;;;;;5160641;27;20078;-70
2021/05/24 11:57:20;;;;;;;3.00;2.28;;;;;;;;;;5161676;27;20425;-70
2021/05/24 11:59:46;;;;;;;2.87;2.12;;;;;;;;;;5161849;27;20082;-71
2021/05/24 12:02:12;;;;;;;2.80;2.20;;;;;;;;;;5162104;27;20078;-70
2021/05/24 12:04:40;;;;;;;5.75;2.17;;;;;;;;;;5169821;27;20106;-71
2021/05/24 12:07:08;;;;;;;3.12;1.80;;;;;;;;;;5180329;27;20086;-70
2021/05/24 12:09:51;;;;;;;2.53;1.80;;;;;;;;;;5182472;27;20129;-71
2021/05/24 12:12:24;;;;;;;5.70;2.22;;;;;;;;;;5184384;27;20075;-71
2021/05/24 12:14:59;;;;;;;8.73;2.22;;;;;;;;;;5148411;27;20071;-71
2021/05/24 12:17:26;;;;;;;6.10;2.58;;;;;;;;;;5165608;27;20128;-70
2021/05/24 12:19:53;;;;;;;5.70;2.47;;;;;;;;;;5161153;27;20069;-70
2021/05/24 12:22:21;;;;;;;2.12;1.90;;;;;;;;;;5160809;27;20105;-70
2021/05/24 12:24:47;;;;;;;4.05;1.62;;;;;;;;;;5159770;27;20066;-69
2021/05/24 12:27:15;;;;;;;6.60;2.08;;;;;;;;;;5161265;27;20505;-70
2021/05/24 12:29:50;;;;;;;7.35;2.17;;;;;;;;;;5160943;27;20078;-70
2021/05/24 12:33:04;;;;;;;4.30;2.20;;;;;;;;;;5161977;27;20161;-70
2021/05/24 12:35:33;;;;;;;2.90;2.10;;;;;;;;;;5145332;27;20093;-70
2021/05/24 12:38:15;;;;;;;4.30;1.80;;;;;;;;;;5164075;27;20075;-71
2021/05/24 12:40:41;;;;;;;3.53;1.73;;;;;;;;;;5145151;27;20089;-71
2021/05/24 12:43:07;;;;;;;5.35;2.15;;;;;;;;;;5147830;27;20086;-70
2021/05/24 12:45:33;;;;;;;3.17;1.75;;;;;;;;;;5162876;27;20100;-71
2021/05/24 12:48:02;;;;;;;4.68;1.90;;;;;;;;;;5167784;27;20218;-68
2021/05/24 12:50:28;;;;;;;8.82;2.40;;;;;;;;;;5145482;27;20122;-70
2021/05/24 12:52:54;;;;;;;7.97;2.00;;;;;;;;;;5159557;27;20058;-69
2021/05/24 12:55:20;;;;;;;5.32;2.12;;;;;;;;;;5158348;27;20197;-70
2021/05/24 12:57:47;;;;;;;3.72;2.25;;;;;;;;;;5161404;27;20093;-70
2021/05/24 13:00:14;;;;;;;1.90;1.77;;;;;;;;;;5161867;27;20066;-70
2021/05/24 13:02:40;;;;;;;4.78;1.80;;;;;;;;;;5159843;27;20136;-70
2021/05/24 13:05:14;;;;;;;3.70;2.12;;;;;;;;;;5162125;27;20086;-70
2021/05/24 13:07:50;;;;;;;7.68;2.92;;;;;;;;;;5157676;27;20085;-70
2021/05/24 13:10:18;;;;;;;5.40;1.90;;;;;;;;;;5157626;27;20114;-71
2021/05/24 13:12:47;;;;;;;5.82;2.00;;;;;;;;;;5158976;27;20588;-71
2021/05/24 13:15:14;;;;;;;5.18;2.30;;;;;;;;;;5159128;27;20260;-71
2021/05/24 13:18:01;;;;;;;3.55;1.90;;;;;;;;;;5157527;27;20101;-70
2021/05/24 13:21:06;;;;;;;1.95;1.75;;;;;;;;;;5159049;27;20426;-70
2021/05/24 13:31:09;;;;;;;6.18;2.45;;;;;;;;;;5158994;27;20180;-71
2021/05/24 13:33:39;;;;;;;2.85;2.00;;;;;;;;;;5159205;27;20078;-71
2021/05/24 13:36:17;;;;;;;6.95;2.10;;;;;;;;;;5157069;27;20603;-72
2021/05/24 13:39:10;;;;;;;3.00;2.05;;;;;;;;;;5157135;27;20062;-71
2021/05/24 13:41:37;;;;;;;5.05;2.00;;;;;;;;;;5159002;27;20536;-71
2021/05/24 13:44:03;;;;;;;3.22;1.90;;;;;;;;;;5158788;27;20067;-70
2021/05/24 13:46:29;;;;;;;2.00;1.75;;;;;;;;;;5159224;27;20063;-71
2021/05/24 13:48:55;;;;;;;4.60;1.83;;;;;;;;;;5156981;27;20093;-71
2021/05/24 13:51:25;;;;;;;3.75;1.80;;;;;;;;;;5158669;27;20075;-70
2021/05/24 13:53:51;;;;;;;2.25;1.95;;;;;;;;;;5140585;27;20100;-71
2021/05/24 13:56:17;;;;;;;5.05;2.17;;;;;;;;;;5159135;27;20102;-71
2021/05/24 13:58:43;;;;;;;5.20;2.28;;;;;;;;;;5159036;27;20086;-71
2021/05/24 14:01:10;;;;;;;2.83;2.00;;;;;;;;;;5157805;27;20512;-71
2021/05/24 14:03:36;;;;;;;8.93;2.20;;;;;;;;;;5159015;27;20195;-71
2021/05/24 14:06:02;;;;;;;3.53;1.73;;;;;;;;;;5158961;27;20126;-71
2021/05/24 14:08:28;;;;;;;3.20;1.70;;;;;;;;;;5159080;27;20118;-72
2021/05/24 14:10:53;;;;;;;3.95;1.90;;;;;;;;;;5158910;27;20125;-72
2021/05/24 14:13:21;;;;;;;2.15;1.95;;;;;;;;;;5158558;27;20078;-71
2021/05/24 14:15:47;;;;;;;7.53;2.00;;;;;;;;;;5158973;27;20090;-70
2021/05/24 14:18:13;;;;;;;7.03;2.83;;;;;;;;;;5159821;27;20514;-69
2021/05/24 14:20:40;;;;;;;5.82;2.65;;;;;;;;;;5161548;27;20101;-71
2021/05/24 14:23:06;;;;;;;5.95;2.40;;;;;;;;;;5141354;27;20066;-71
2021/05/24 14:25:31;;;;;;;4.20;2.30;;;;;;;;;;5161303;27;20507;-71
2021/05/24 14:27:57;;;;;;;6.03;2.70;;;;;;;;;;5160883;27;20083;-73
2021/05/24 14:30:27;;;;;;;4.20;2.37;;;;;;;;;;5160258;27;20603;-70
2021/05/24 14:32:57;;;;;;;5.22;2.30;;;;;;;;;;5162513;27;20102;-71
2021/05/24 14:35:23;;;;;;;3.92;2.40;;;;;;;;;;5160578;27;20082;-72
2021/05/24 14:37:49;;;;;;;2.20;1.95;;;;;;;;;;5161292;27;20071;-73
2021/05/24 14:40:15;;;;;;;6.57;2.20;;;;;;;;;;5160840;27;20078;-71
2021/05/24 14:42:44;;;;;;;4.80;2.50;;;;;;;;;;5159700;27;20066;-74
2021/05/24 14:45:10;;;;;;;6.43;1.92;;;;;;;;;;5142551;27;20505;-71
2021/05/24 14:47:36;;;;;;;6.72;2.58;;;;;;;;;;5159786;27;20097;-72
2021/05/24 14:50:05;;;;;;;5.22;2.50;;;;;;;;;;5158832;27;20098;-71
2021/05/24 14:52:31;;;;;;;3.80;2.78;;;;;;;;;;5159158;27;20078;-70
2021/05/24 14:54:58;;;;;;;7.65;2.80;;;;;;;;;;5158853;27;20410;-71
2021/05/24 14:57:24;;;;;;;5.78;2.90;;;;;;;;;;5159207;27;20086;-71
2021/05/24 14:59:50;;;;;;;2.37;1.77;;;;;;;;;;5141643;27;20161;-70
2021/05/24 15:02:16;;;;;;;6.12;2.22;;;;;;;;;;5161914;27;20085;-71
2021/05/24 15:04:42;;;;;;;8.25;2.47;;;;;;;;;;5159748;27;20086;-67
2021/05/24 15:07:08;;;;;;;3.03;1.92;;;;;;;;;;5160232;27;20081;-67
2021/05/24 15:09:37;;;;;;;5.05;1.92;;;;;;;;;;5160047;27;20070;-67
2021/05/24 15:12:03;;;;;;;4.80;2.33;;;;;;;;;;5160147;27;20079;-67
2021/05/24 15:14:31;;;;;;;5.15;2.60;;;;;;;;;;5160721;27;20063;-68
2021/05/24 15:16:57;;;;;;;7.20;3.40;;;;;;;;;;5160350;27;20204;-68
2021/05/24 15:19:23;;;;;;;5.65;3.50;;;;;;;;;;5159896;27;20078;-71